Time;durP1;ratioP1;P1;durP2;ratioP2;P2;SDS_P1;SDS_P2;PMS_P1;PMS_P2;Temp;Humidity;BMP_temperature;BMP_pressure;BME280_temperature;BME280_humidity;BME280_pressure;Samples;Min_cycle;Max_cycle;Signal;HPM_P1;HPM_P2
2023/06/22 00:02:20;;;;;;;;;10.40;8.20;;;;;22.18;94.28;99887.00;6338481;20;2746112;-60
2023/06/22 00:04:51;;;;;;;;;11.00;7.83;;;;;21.83;97.46;99879.84;6327746;20;3498171;-60
2023/06/22 00:07:19;;;;;;;;;6.00;6.00;;;;;21.79;98.26;99870.22;6290602;20;2746155;-60
2023/06/22 00:09:48;;;;;;;;;8.80;7.00;;;;;21.83;98.31;99855.22;6336029;20;2751335;-60
2023/06/22 00:12:16;;;;;;;;;6.33;6.33;;;;;21.90;98.81;99850.81;6278411;20;2748235;-61
2023/06/22 00:14:45;;;;;;;;;7.40;6.20;;;;;21.65;99.82;99856.16;6335622;20;2746160;-60
2023/06/22 00:17:13;;;;;;;;;8.00;8.00;;;;;21.72;100.00;99859.06;6288693;20;2735084;-60
2023/06/22 00:19:42;;;;;;;;;8.40;5.00;;;;;21.87;99.09;99870.28;6335178;20;2742006;-61
2023/06/22 00:22:11;;;;;;;;;7.60;6.40;;;;;21.91;98.06;99874.41;6336829;20;2746109;-61
2023/06/22 00:24:39;;;;;;;;;8.33;8.33;;;;;21.75;98.53;99841.50;6286150;20;2755576;-61
2023/06/22 00:27:07;;;;;;;;;8.67;8.67;;;;;21.29;100.00;99786.22;6313051;20;2742041;-61
2023/06/22 00:29:35;;;;;;;;;9.33;9.00;;;;;21.12;100.00;99756.09;6306995;20;2758749;-61
2023/06/22 00:32:04;;;;;;;;;8.33;6.67;;;;;21.38;100.00;99769.75;6309840;20;2730633;-60
2023/06/22 00:34:32;;;;;;;;;11.67;9.67;;;;;21.37;100.00;99794.47;6311178;20;3502703;-60
2023/06/22 00:37:00;;;;;;;;;13.00;7.33;;;;;21.24;100.00;99823.03;6320792;20;2746168;-60
2023/06/22 00:39:28;;;;;;;;;8.33;8.33;;;;;21.29;100.00;99829.91;6316438;20;2728438;-60
2023/06/22 00:41:56;;;;;;;;;11.33;10.67;;;;;21.36;100.00;99828.28;6316227;20;2786951;-60
2023/06/22 00:44:25;;;;;;;;;10.60;8.60;;;;;21.43;100.00;99832.09;6335566;20;2768030;-60
2023/06/22 00:46:53;;;;;;;;;13.33;11.00;;;;;21.16;100.00;99831.19;6283926;20;2789855;-59
2023/06/22 00:49:21;;;;;;;;;8.33;8.33;;;;;21.33;100.00;99831.28;6316053;20;2744038;-60
2023/06/22 00:51:49;;;;;;;;;10.00;8.33;;;;;21.18;100.00;99820.13;6306787;20;2771251;-59
2023/06/22 00:54:24;;;;;;;;;8.00;8.00;;;;;21.21;100.00;99828.84;6307105;20;2749249;-59
2023/06/22 00:56:56;;;;;;;;;7.80;6.80;;;;;21.22;100.00;99818.75;6337697;20;2744080;-59
2023/06/22 00:59:26;;;;;;;;;14.33;9.67;;;;;21.25;100.00;99823.94;6277441;20;2787981;-60
2023/06/22 01:01:54;;;;;;;;;10.00;8.00;;;;;21.27;100.00;99816.41;6314722;20;2492055;-59
2023/06/22 01:04:35;;;;;;;;;9.67;8.00;;;;;21.17;100.00;99824.72;6310964;20;2748176;-60
2023/06/22 01:07:13;;;;;;;;;8.67;7.33;;;;;21.17;100.00;99822.00;6311485;20;2739973;-60
2023/06/22 01:10:38;;;;;;;;;10.67;8.67;;;;;21.01;100.00;99816.38;6313233;20;2775319;-59
2023/06/22 01:13:31;;;;;;;;;7.00;7.00;;;;;21.02;100.00;99812.66;6324860;20;2754575;-59
2023/06/22 01:16:12;;;;;;;;;9.20;8.00;;;;;20.99;100.00;99812.97;6300776;20;2749413;-60
2023/06/22 01:18:44;;;;;;;;;10.80;8.60;;;;;20.88;100.00;99810.47;6298495;20;2774308;-61
2023/06/22 01:21:17;;;;;;;;;11.00;7.33;;;;;20.93;100.00;99802.69;6284903;20;2766954;-59
2023/06/22 01:24:19;;;;;;;;;6.67;6.00;;;;;20.81;100.00;99802.94;6313344;20;2741989;-62
2023/06/22 01:27:24;;;;;;;;;8.00;7.33;;;;;20.76;100.00;99804.41;6314985;20;2744083;-61
2023/06/22 01:30:06;;;;;;;;;10.33;8.00;;;;;20.94;100.00;99805.25;6305293;20;2766102;-59
2023/06/22 01:32:36;;;;;;;;;0.67;0.33;;;;;20.82;100.00;99810.09;6310689;20;2729457;-59
2023/06/22 01:35:07;;;;;;;;;10.00;7.60;;;;;20.94;100.00;99820.78;6335864;20;2751349;-60
2023/06/22 01:37:41;;;;;;;;;7.67;6.00;;;;;20.94;100.00;99818.06;6281558;20;2739906;-59
2023/06/22 01:40:10;;;;;;;;;9.33;7.00;;;;;20.83;100.00;99814.56;6312432;20;2748323;-60
2023/06/22 01:42:40;;;;;;;;;8.60;7.20;;;;;20.80;100.00;99830.38;6339048;20;2748233;-59
2023/06/22 01:45:11;;;;;;;;;7.33;6.67;;;;;21.05;100.00;99829.56;6280372;20;2751397;-60
2023/06/22 01:47:40;;;;;;;;;7.00;6.20;;;;;21.04;100.00;99827.00;6339493;20;2731533;-59
2023/06/22 01:50:11;;;;;;;;;7.20;6.80;;;;;20.99;100.00;99835.66;6340276;20;2743001;-60
2023/06/22 01:52:40;;;;;;;;;7.20;6.80;;;;;21.07;100.00;99828.56;6304127;20;2732581;-60
2023/06/22 01:55:08;;;;;;;;;10.33;7.67;;;;;20.94;100.00;99828.97;6318307;20;2741015;-59
2023/06/22 01:57:38;;;;;;;;;9.40;7.00;;;;;20.92;100.00;99840.03;6338478;20;2761704;-59
2023/06/22 02:00:15;;;;;;;;;10.00;7.33;;;;;20.72;100.00;99833.91;6285936;20;2750406;-62
2023/06/22 02:03:11;;;;;;;;;7.20;7.20;;;;;20.82;100.00;99831.94;6339787;20;2736746;-60
2023/06/22 02:05:49;;;;;;;;;10.00;9.00;;;;;20.92;100.00;99840.03;6334324;20;2739934;-60
2023/06/22 02:08:31;;;;;;;;;9.60;7.60;;;;;20.87;100.00;99836.91;6308619;20;2766050;-60
2023/06/22 02:11:02;;;;;;;;;8.67;8.67;;;;;20.73;100.00;99830.16;6283793;20;2746152;-60
2023/06/22 02:13:31;;;;;;;;;8.00;8.00;;;;;20.71;100.00;99821.25;6315045;20;2735830;-59
2023/06/22 02:16:01;;;;;;;;;10.33;7.00;;;;;20.51;100.00;99836.91;6310745;20;2757615;-62
2023/06/22 02:18:29;;;;;;;;;8.00;7.67;;;;;20.36;100.00;99822.94;6313197;20;2741991;-60
2023/06/22 02:20:57;;;;;;;;;9.67;8.00;;;;;20.57;100.00;99821.81;6317847;20;2758607;-60
2023/06/22 02:23:26;;;;;;;;;8.80;8.00;;;;;20.52;100.00;99816.78;6340543;20;2745201;-60
2023/06/22 02:25:54;;;;;;;;;8.33;8.33;;;;;20.34;100.00;99827.69;6290072;20;2756518;-62
2023/06/22 02:28:22;;;;;;;;;10.00;8.33;;;;;20.57;100.00;99825.41;6311387;20;2765352;-60
2023/06/22 02:30:50;;;;;;;;;10.00;10.00;;;;;20.57;100.00;99846.38;6312685;20;2776389;-59
2023/06/22 02:33:18;;;;;;;;;11.67;9.67;;;;;20.58;100.00;99838.00;6309896;20;2781765;-62
2023/06/22 02:35:48;;;;;;;;;8.20;7.00;;;;;20.55;100.00;99832.88;6337405;20;2730515;-60
2023/06/22 02:38:17;;;;;;;;;11.00;8.00;;;;;20.39;100.00;99828.06;6320674;20;2745119;-60
2023/06/22 02:40:47;;;;;;;;;10.00;10.00;;;;;20.48;100.00;99822.69;6338254;20;2784705;-60
2023/06/22 02:43:15;;;;;;;;;3.33;1.00;;;;;20.45;100.00;99831.19;6284519;20;2742099;-60
2023/06/22 02:45:44;;;;;;;;;5.00;5.00;;;;;20.48;100.00;99836.34;6338747;20;2738837;-62
2023/06/22 02:48:12;;;;;;;;;10.00;7.33;;;;;20.51;100.00;99836.03;6316430;20;2745108;-62
2023/06/22 02:50:40;;;;;;;;;9.67;9.00;;;;;20.59;100.00;99827.97;6311128;20;2757573;-48
2023/06/22 02:53:09;;;;;;;;;8.20;8.00;;;;;20.58;100.00;99831.69;6338333;20;2748232;-49
2023/06/22 02:55:39;;;;;;;;;6.40;6.40;;;;;20.61;100.00;99828.66;6305289;20;2737845;-48
2023/06/22 02:58:08;;;;;;;;;9.67;8.00;;;;;20.43;100.00;99827.75;6287334;20;2747332;-47
2023/06/22 03:00:55;;;;;;;;;10.33;7.33;;;;;20.57;100.00;99840.91;6309906;20;2752448;-47
2023/06/22 03:03:26;;;;;;;;;53.00;43.67;;;;;20.52;100.00;99846.78;6314477;20;3612734;-48
2023/06/22 03:05:55;;;;;;;;;35.75;29.25;;;;;20.47;100.00;99851.84;6280137;20;3619105;-46
2023/06/22 03:08:23;;;;;;;;;11.67;10.67;;;;;20.44;100.00;99851.31;6314826;20;2792041;-47
2023/06/22 03:10:51;;;;;;;;;11.33;8.67;;;;;20.41;100.00;99865.25;6320159;20;2775290;-48
2023/06/22 03:13:19;;;;;;;;;10.00;8.33;;;;;20.20;100.00;99860.94;6317069;20;2777464;-47
2023/06/22 03:15:47;;;;;;;;;7.00;6.67;;;;;20.35;100.00;99867.59;6313518;20;2741961;-46
2023/06/22 03:18:15;;;;;;;;;18.00;13.00;;;;;20.50;100.00;99862.44;6315734;20;2809705;-49
2023/06/22 03:20:43;;;;;;;;;40.00;29.67;;;;;20.29;100.00;99860.00;6304664;20;1904011;-47
2023/06/22 03:23:11;;;;;;;;;45.00;37.33;;;;;20.35;100.00;99858.53;6311798;20;3596121;-50
2023/06/22 03:25:41;;;;;;;;;25.33;22.00;;;;;20.27;100.00;99862.00;6282546;20;3583615;-48
2023/06/22 03:28:11;;;;;;;;;22.67;19.33;;;;;20.18;100.00;99857.50;6279042;20;2845202;-48
2023/06/22 03:30:39;;;;;;;;;11.33;10.00;;;;;20.32;100.00;99861.56;6308774;20;3510714;-46
2023/06/22 03:33:07;;;;;;;;;12.00;11.33;;;;;20.29;100.00;99854.53;6314922;20;2787854;-50
2023/06/22 03:35:35;;;;;;;;;9.67;9.67;;;;;20.23;100.00;99859.75;6312859;20;2775332;-49
2023/06/22 03:38:03;;;;;;;;;13.33;10.00;;;;;20.40;100.00;99869.84;6310182;20;3514826;-47
2023/06/22 03:40:31;;;;;;;;;12.00;10.33;;;;;20.36;100.00;99866.56;6306507;20;3519023;-47
2023/06/22 03:42:59;;;;;;;;;11.00;9.67;;;;;20.39;100.00;99871.72;6280223;20;3503461;-48
2023/06/22 03:45:27;;;;;;;;;15.33;10.33;;;;;20.36;100.00;99861.13;6310525;20;3506663;-45
2023/06/22 03:47:55;;;;;;;;;25.00;19.33;;;;;20.19;100.00;99870.09;6315641;20;3559660;-46
2023/06/22 03:50:24;;;;;;;;;22.00;16.50;;;;;20.51;100.00;99875.09;6281563;20;2831567;-46
2023/06/22 03:52:52;;;;;;;;;19.00;13.33;;;;;20.67;100.00;99873.56;6279651;20;3536723;-48
2023/06/22 03:55:20;;;;;;;;;13.33;13.33;;;;;20.68;100.00;99870.69;6280376;20;2799433;-46
2023/06/22 03:57:48;;;;;;;;;12.00;12.00;;;;;20.80;100.00;99861.28;6309487;20;3515069;-46
2023/06/22 04:00:17;;;;;;;;;10.67;9.33;;;;;20.75;100.00;99857.28;6312376;20;2781570;-49
2023/06/22 04:02:45;;;;;;;;;14.00;10.33;;;;;20.71;100.00;99850.41;6314325;20;2788844;-47
2023/06/22 04:05:13;;;;;;;;;10.33;7.00;;;;;20.65;100.00;99846.44;6306178;20;2758593;-49
2023/06/22 04:07:41;;;;;;;;;10.33;10.33;;;;;20.88;100.00;99867.78;6316161;20;2788910;-47
2023/06/22 04:10:10;;;;;;;;;6.80;5.80;;;;;20.69;100.00;99861.47;6335612;20;2744065;-49
2023/06/22 04:12:40;;;;;;;;;11.67;10.33;;;;;20.88;100.00;99870.53;6283811;20;2784222;-47
2023/06/22 04:15:09;;;;;;;;;13.00;11.00;;;;;21.11;100.00;99879.94;6310174;20;3511724;-51
2023/06/22 04:17:37;;;;;;;;;19.00;13.33;;;;;21.11;100.00;99885.41;6310185;20;3542974;-49
2023/06/22 04:20:06;;;;;;;;;15.00;12.00;;;;;21.04;100.00;99879.75;6284264;20;2794035;-49
2023/06/22 04:22:35;;;;;;;;;10.67;10.67;;;;;21.30;100.00;99887.13;6310170;20;3511833;-48
2023/06/22 04:25:03;;;;;;;;;12.67;11.33;;;;;21.23;100.00;99875.13;6277341;20;3518079;-47
2023/06/22 04:27:31;;;;;;;;;12.33;11.00;;;;;21.20;100.00;99876.28;6312575;20;3516976;-51
2023/06/22 04:30:00;;;;;;;;;11.33;9.00;;;;;21.34;100.00;99871.28;6275596;20;3489968;-48
2023/06/22 04:32:28;;;;;;;;;12.00;10.33;;;;;21.45;100.00;99862.84;6313242;20;2790025;-47
2023/06/22 04:34:56;;;;;;;;;10.67;10.00;;;;;21.48;100.00;99865.25;6310133;20;3498202;-47
2023/06/22 04:37:24;;;;;;;;;14.00;12.67;;;;;21.67;100.00;99858.72;6309586;20;3520040;-46
2023/06/22 04:39:52;;;;;;;;;11.33;10.67;;;;;21.75;100.00;99861.50;6309203;20;3517943;-50
2023/06/22 04:42:21;;;;;;;;;12.00;10.67;;;;;21.89;100.00;99870.97;6310200;20;3516117;-49
2023/06/22 04:44:49;;;;;;;;;15.33;13.33;;;;;22.14;100.00;99872.81;6312957;20;2797181;-49
2023/06/22 04:47:17;;;;;;;;;12.00;9.33;;;;;22.16;100.00;99866.31;6309721;20;3506516;-48
2023/06/22 04:49:45;;;;;;;;;12.00;11.00;;;;;22.42;100.00;99867.13;6303796;20;3520056;-47
2023/06/22 04:52:17;;;;;;;;;12.67;11.33;;;;;22.50;98.78;99869.88;6275489;20;3514840;-50
2023/06/22 04:54:47;;;;;;;;;10.00;8.67;;;;;22.66;97.70;99868.19;6307391;20;2756656;-50
2023/06/22 04:57:16;;;;;;;;;15.33;11.67;;;;;22.78;97.24;99869.59;6307818;20;3515983;-49
2023/06/22 04:59:44;;;;;;;;;10.33;8.67;;;;;22.57;97.54;99873.66;6308141;20;2766973;-47
2023/06/22 05:02:12;;;;;;;;;13.00;9.00;;;;;22.53;97.58;99866.78;6313284;20;2769141;-45
2023/06/22 05:04:40;;;;;;;;;15.67;10.67;;;;;22.56;98.34;99868.34;6313027;20;2794226;-52
2023/06/22 05:07:09;;;;;;;;;12.00;10.33;;;;;22.56;98.94;99880.16;6309479;20;3515039;-48
2023/06/22 05:09:37;;;;;;;;;14.00;9.67;;;;;22.81;94.39;99882.94;6314799;20;2783730;-47
2023/06/22 05:12:07;;;;;;;;;7.80;5.00;;;;;22.91;95.05;99889.13;6342907;20;2741938;-50
2023/06/22 05:14:38;;;;;;;;;9.00;6.67;;;;;22.73;93.06;99885.66;6291208;20;2747185;-47
2023/06/22 05:17:13;;;;;;;;;12.00;9.00;;;;;22.87;94.45;99895.09;6315771;20;2781533;-48
2023/06/22 05:19:44;;;;;;;;;9.00;7.67;;;;;23.00;94.14;99895.50;6314408;20;2742090;-48
2023/06/22 05:22:13;;;;;;;;;10.33;9.00;;;;;23.23;93.65;99909.38;6316057;20;2775293;-49
2023/06/22 05:24:42;;;;;;;;;12.00;10.00;;;;;23.65;92.11;99920.16;6315729;20;2791019;-48
2023/06/22 05:27:10;;;;;;;;;9.33;9.33;;;;;23.79;91.08;99910.38;6324122;20;2773241;-48
2023/06/22 05:29:39;;;;;;;;;13.00;11.00;;;;;23.70;92.14;99921.50;6312317;20;3518013;-46
2023/06/22 05:32:08;;;;;;;;;10.33;10.33;;;;;23.98;91.41;99919.25;6283823;20;3512868;-47
2023/06/22 05:34:37;;;;;;;;;13.67;11.00;;;;;24.10;89.76;99923.34;6310871;20;3518090;-46
2023/06/22 05:37:06;;;;;;;;;11.00;9.33;;;;;24.51;87.93;99928.69;6317162;20;2778448;-46
2023/06/22 05:39:34;;;;;;;;;11.00;10.67;;;;;24.30;87.44;99930.13;6315150;20;3518172;-44
2023/06/22 05:42:02;;;;;;;;;11.00;10.33;;;;;24.27;88.23;99935.94;6317575;20;2794098;-48
2023/06/22 05:44:33;;;;;;;;;10.50;10.50;;;;;24.56;85.77;99933.66;6341507;20;2794052;-45
2023/06/22 05:47:01;;;;;;;;;10.67;10.00;;;;;24.41;84.72;99936.25;6314112;20;3520244;-48
2023/06/22 05:49:29;;;;;;;;;9.00;7.67;;;;;24.44;84.62;99930.44;6313095;20;2766999;-48
2023/06/22 05:51:59;;;;;;;;;8.00;7.60;;;;;24.69;83.55;99940.25;6343636;20;2748223;-47
2023/06/22 05:54:28;;;;;;;;;10.33;8.67;;;;;24.73;81.60;99949.03;6280597;20;2770120;-46
2023/06/22 05:56:56;;;;;;;;;10.33;8.00;;;;;24.83;81.26;99946.91;6316904;20;2749342;-49
2023/06/22 05:59:45;;;;;;;;;7.00;7.00;;;;;25.01;80.62;99952.09;6307075;20;2742194;-57
2023/06/22 06:02:14;;;;;;;;;10.00;7.00;;;;;25.17;79.91;99956.66;6318975;20;2760786;-57
2023/06/22 06:04:42;;;;;;;;;8.67;8.67;;;;;25.11;79.27;99960.13;6316231;20;2748252;-52
2023/06/22 06:07:10;;;;;;;;;10.00;6.00;;;;;25.51;77.28;99967.22;6316267;20;2749365;-55
2023/06/22 06:09:38;;;;;;;;;14.00;7.50;;;;;25.63;77.97;99975.91;6324598;20;2650528;-56
2023/06/22 06:12:06;;;;;;;;;8.00;8.00;;;;;25.94;77.32;99969.47;6328636;20;2734674;-54
2023/06/22 06:14:34;;;;;;;;;14.00;8.67;;;;;25.67;77.62;99968.13;6314690;20;2769162;-58
2023/06/22 06:17:03;;;;;;;;;9.67;8.00;;;;;26.23;75.94;99965.91;6318572;20;2759666;-55
2023/06/22 06:19:31;;;;;;;;;6.33;6.33;;;;;26.46;75.62;99977.66;6312370;20;2737837;-56
2023/06/22 06:22:00;;;;;;;;;13.00;9.33;;;;;26.39;73.62;99978.63;6317194;20;2779449;-55
2023/06/22 06:24:28;;;;;;;;;10.67;8.33;;;;;26.25;74.21;99975.69;6315308;20;2761745;-50
2023/06/22 06:26:57;;;;;;;;;9.20;5.00;;;;;26.56;73.52;99971.03;6340228;20;2765915;-52
2023/06/22 06:29:26;;;;;;;;;9.20;5.60;;;;;26.96;70.40;99977.03;6310163;20;2749301;-53
2023/06/22 06:31:54;;;;;;;;;10.67;7.00;;;;;27.25;70.02;99981.63;6289722;20;2764992;-56
2023/06/22 06:34:22;;;;;;;;;7.00;7.00;;;;;27.44;67.86;99974.66;6314010;20;2729511;-57
2023/06/22 06:36:50;;;;;;;;;12.33;6.33;;;;;27.51;67.19;99978.31;6315342;20;2754588;-57
2023/06/22 06:39:18;;;;;;;;;10.67;8.00;;;;;27.84;65.06;99983.31;6319635;20;2751467;-58
2023/06/22 06:41:46;;;;;;;;;9.00;6.33;;;;;27.69;66.40;99984.19;6311087;20;2730491;-57
2023/06/22 06:44:14;;;;;;;;;7.67;6.33;;;;;28.29;64.50;99978.34;6315137;20;2737827;-57
2023/06/22 06:46:42;;;;;;;;;4.67;3.67;;;;;28.17;63.81;99973.38;6318195;20;2748249;-56
2023/06/22 06:49:10;;;;;;;;;7.00;5.33;;;;;28.26;62.94;99979.59;6316032;20;2743152;-57
2023/06/22 06:51:38;;;;;;;;;9.67;4.67;;;;;28.47;61.29;99984.22;6324679;20;2746219;-58
2023/06/22 06:54:06;;;;;;;;;6.67;5.67;;;;;29.18;58.27;99980.28;6319855;20;2744137;-56
2023/06/22 06:56:34;;;;;;;;;6.00;5.33;;;;;28.96;58.97;99974.84;6325830;20;2742133;-55
2023/06/22 06:59:02;;;;;;;;;4.67;4.67;;;;;29.02;55.90;99979.56;6316708;20;2737819;-55
2023/06/22 07:01:33;;;;;;;;;8.00;4.00;;;;;29.01;56.84;99972.31;6322748;20;2630559;-52
2023/06/22 07:04:01;;;;;;;;;3.67;3.67;;;;;29.52;54.85;99974.59;6317177;20;2753593;-58
2023/06/22 07:06:32;;;;;;;;;6.00;5.67;;;;;29.92;54.15;99974.66;6319843;20;2750284;-58
2023/06/22 07:09:00;;;;;;;;;7.33;5.33;;;;;29.17;55.15;99970.28;6320476;20;2735730;-56
2023/06/22 07:11:28;;;;;;;;;7.00;7.00;;;;;29.15;54.32;99969.63;6316507;20;2748322;-58
2023/06/22 07:13:56;;;;;;;;;5.00;5.00;;;;;29.58;53.41;99967.38;6322058;20;2745182;-56
2023/06/22 07:16:26;;;;;;;;;7.67;4.67;;;;;30.27;53.96;99963.34;6316727;20;2730695;-58
2023/06/22 07:18:54;;;;;;;;;8.00;5.00;;;;;29.93;55.60;99959.72;6310483;20;2739861;-55
2023/06/22 07:21:22;;;;;;;;;12.00;7.00;;;;;29.94;53.08;99966.97;6313589;20;3482572;-57
2023/06/22 07:23:50;;;;;;;;;6.00;6.00;;;;;29.81;53.76;99957.84;6315459;20;2748320;-58
2023/06/22 07:26:18;;;;;;;;;7.00;5.67;;;;;30.26;53.20;99961.66;6327149;20;2744035;-58
2023/06/22 07:28:46;;;;;;;;;8.00;8.00;;;;;30.95;51.64;99957.38;6319333;20;2733621;-58
2023/06/22 07:31:14;;;;;;;;;2.33;2.33;;;;;30.13;52.60;99956.94;6313088;20;2737818;-57
2023/06/22 07:33:44;;;;;;;;;2.50;2.00;;;;;29.37;52.13;99951.81;6360718;20;1910759;-58
2023/06/22 07:36:12;;;;;;;;;14.67;12.33;;;;;29.69;52.41;99952.06;6282670;20;2785848;-57
2023/06/22 07:38:40;;;;;;;;;5.00;3.00;;;;;30.10;51.75;99953.75;6316704;20;2752499;-56
2023/06/22 07:41:09;;;;;;;;;7.00;4.40;;;;;30.24;51.90;99961.00;6339658;20;2752542;-57
2023/06/22 07:43:37;;;;;;;;;7.67;5.67;;;;;30.24;51.21;99952.69;6289450;20;2736752;-57
2023/06/22 07:46:06;;;;;;;;;6.33;5.00;;;;;30.71;50.66;99955.31;6316038;20;2734692;-58
2023/06/22 07:48:37;;;;;;;;;7.67;4.33;;;;;30.70;49.34;99957.25;6310930;20;2745171;-58
2023/06/22 07:51:08;;;;;;;;;15.57;14.14;;;;;31.13;49.14;99962.19;6335327;20;3540591;-56
2023/06/22 07:53:36;;;;;;;;;7.33;5.33;;;;;30.59;49.74;99955.13;6315035;20;2741961;-58
2023/06/22 07:56:06;;;;;;;;;7.00;5.00;;;;;31.46;48.19;99963.91;6326675;20;2745250;-58
2023/06/22 07:58:35;;;;;;;;;6.67;4.33;;;;;31.23;47.92;99962.56;6315192;20;2750295;-58
2023/06/22 08:01:03;;;;;;;;;5.00;4.00;;;;;31.49;47.76;99969.00;6318557;20;2752402;-59
2023/06/22 08:03:32;;;;;;;;;7.00;3.67;;;;;31.63;47.58;99969.78;6314497;20;2746246;-59
2023/06/22 08:06:00;;;;;;;;;6.00;4.67;;;;;31.09;47.14;99968.38;6315664;20;2750479;-59
2023/06/22 08:08:28;;;;;;;;;9.33;6.00;;;;;31.73;47.65;99960.94;6313358;20;2759760;-59
2023/06/22 08:10:56;;;;;;;;;6.00;4.00;;;;;30.62;49.28;99958.34;6320815;20;2745200;-59
2023/06/22 08:13:24;;;;;;;;;7.00;5.00;;;;;31.25;48.41;99967.88;6314603;20;2739879;-59
2023/06/22 08:15:52;;;;;;;;;7.00;4.00;;;;;30.68;48.45;99955.78;6317584;20;2748349;-58
2023/06/22 08:18:20;;;;;;;;;5.67;5.67;;;;;31.43;47.04;99956.88;6314940;20;2745155;-59
2023/06/22 08:20:49;;;;;;;;;5.67;4.67;;;;;31.79;46.52;99962.81;6318989;20;2736756;-59
2023/06/22 08:23:17;;;;;;;;;5.00;3.33;;;;;31.42;47.16;99951.59;6322882;20;2749252;-59
2023/06/22 08:25:46;;;;;;;;;4.00;4.00;;;;;32.09;46.12;99963.84;6315546;20;2748210;-59
2023/06/22 08:28:14;;;;;;;;;5.33;4.00;;;;;31.65;47.27;99951.84;6321528;20;2740911;-58
2023/06/22 08:30:42;;;;;;;;;6.00;4.33;;;;;32.78;45.60;99963.75;6314328;20;2743069;-58
2023/06/22 08:33:10;;;;;;;;;5.67;5.00;;;;;31.32;46.48;99953.97;6318359;20;2745193;-59
2023/06/22 08:35:46;;;;;;;;;6.33;5.00;;;;;30.68;46.35;99950.22;6315602;20;2737796;-59
2023/06/22 08:38:15;;;;;;;;;6.33;5.33;;;;;31.14;46.79;99952.78;6314620;20;2743012;-59
2023/06/22 08:40:43;;;;;;;;;5.00;5.00;;;;;31.46;45.03;99952.81;6316772;20;2731150;-59
2023/06/22 08:43:11;;;;;;;;;5.33;4.00;;;;;31.35;46.04;99948.81;6326897;20;2743032;-59
2023/06/22 08:45:40;;;;;;;;;8.80;6.60;;;;;31.02;46.40;99949.03;6345814;20;2742995;-60
2023/06/22 08:48:09;;;;;;;;;5.00;3.67;;;;;31.73;47.29;99942.38;6293721;20;2747245;-60
2023/06/22 08:50:37;;;;;;;;;7.33;4.33;;;;;31.60;47.35;99939.72;6328927;20;2740928;-60
2023/06/22 08:53:06;;;;;;;;;4.00;4.00;;;;;31.70;44.93;99931.69;6326225;20;2743081;-59
2023/06/22 08:55:34;;;;;;;;;4.00;4.00;;;;;31.64;45.83;99936.22;6333613;20;2750081;-60
2023/06/22 08:58:03;;;;;;;;;5.67;4.67;;;;;31.60;44.90;99929.44;6327652;20;2748237;-59
2023/06/22 09:00:34;;;;;;;;;8.50;4.50;;;;;31.69;46.51;99930.00;6325011;20;2735700;-59
2023/06/22 09:03:02;;;;;;;;;4.33;4.33;;;;;31.83;43.81;99933.50;6324610;20;2743093;-59
2023/06/22 09:05:32;;;;;;;;;5.60;5.60;;;;;31.11;45.95;99928.25;6347149;20;2731695;-59
2023/06/22 09:08:00;;;;;;;;;7.00;5.00;;;;;32.16;46.10;99932.38;6292745;20;2747150;-59
2023/06/22 09:10:28;;;;;;;;;8.33;6.67;;;;;31.85;45.96;99934.13;6332072;20;2745090;-59
2023/06/22 09:12:57;;;;;;;;;6.00;6.00;;;;;31.49;45.47;99931.03;6332406;20;2740895;-59
2023/06/22 09:15:25;;;;;;;;;9.00;6.00;;;;;31.79;44.05;99929.50;6324991;20;2745097;-58
2023/06/22 09:17:54;;;;;;;;;10.67;6.00;;;;;32.27;42.51;99931.59;6322913;20;2754523;-59
2023/06/22 09:20:22;;;;;;;;;7.67;6.67;;;;;31.95;44.17;99926.16;6328223;20;2738858;-59
2023/06/22 09:22:50;;;;;;;;;5.67;5.67;;;;;32.13;43.40;99928.97;6326701;20;2744047;-59
2023/06/22 09:25:20;;;;;;;;;9.33;7.33;;;;;32.60;42.71;99927.59;6332183;20;2753526;-58
2023/06/22 09:27:48;;;;;;;;;7.00;7.00;;;;;32.76;42.18;99924.22;6331514;20;2742072;-59
2023/06/22 09:30:16;;;;;;;;;8.00;4.00;;;;;32.43;44.45;99922.66;6322341;20;2748204;-60
2023/06/22 09:32:44;;;;;;;;;7.00;3.67;;;;;32.31;42.91;99918.97;6324829;20;2740966;-59
2023/06/22 09:35:13;;;;;;;;;8.33;5.33;;;;;31.43;44.19;99911.63;6326734;20;2729636;-59
2023/06/22 09:37:41;;;;;;;;;5.33;5.33;;;;;31.51;45.71;99921.63;6325427;20;2740908;-60
2023/06/22 09:40:12;;;;;;;;;9.00;7.67;;;;;31.03;45.73;99914.66;6320348;20;2745132;-60
2023/06/22 09:42:41;;;;;;;;;7.00;5.00;;;;;32.33;43.85;99914.00;6332006;20;2744125;-59
2023/06/22 09:45:09;;;;;;;;;8.33;6.00;;;;;32.25;43.45;99911.53;6332503;20;2748209;-60
2023/06/22 09:47:38;;;;;;;;;6.00;6.00;;;;;32.06;43.96;99914.28;6322218;20;2748280;-59
2023/06/22 09:50:07;;;;;;;;;9.67;7.67;;;;;32.90;44.09;99913.75;6326407;20;2754450;-59
2023/06/22 09:52:35;;;;;;;;;11.00;8.67;;;;;31.94;45.40;99913.38;6331182;20;2763932;-60
2023/06/22 09:55:15;;;;;;;;;12.67;10.33;;;;;32.02;45.04;99901.97;6318181;20;3512787;-60
2023/06/22 09:57:44;;;;;;;;;11.33;10.00;;;;;32.53;45.58;99914.66;6282323;20;3510747;-59
2023/06/22 10:00:15;;;;;;;;;8.33;8.33;;;;;32.98;43.30;99900.34;6279930;20;3459695;-59
2023/06/22 10:02:44;;;;;;;;;14.00;9.00;;;;;33.06;44.49;99906.72;6316537;20;3491991;-59
2023/06/22 10:05:12;;;;;;;;;14.67;10.00;;;;;32.91;44.96;99912.66;6316787;20;2484114;-59
2023/06/22 10:07:43;;;;;;;;;12.67;10.00;;;;;32.08;44.17;99912.16;6316422;20;3501385;-60
2023/06/22 10:10:13;;;;;;;;;12.67;11.33;;;;;32.58;45.25;99906.47;6287328;20;3508606;-59
2023/06/22 10:12:46;;;;;;;;;16.67;14.00;;;;;32.62;45.93;99914.31;6317369;20;3531609;-59
2023/06/22 10:15:15;;;;;;;;;13.00;12.67;;;;;33.19;45.69;99901.78;6317307;20;3525318;-59
2023/06/22 10:17:43;;;;;;;;;13.33;11.00;;;;;32.88;44.59;99907.56;6316801;20;3510711;-59
2023/06/22 10:20:12;;;;;;;;;16.67;16.67;;;;;32.23;45.81;99902.56;6316175;20;3572357;-59
2023/06/22 10:22:43;;;;;;;;;13.33;12.00;;;;;32.58;46.99;99895.34;6288280;20;3527373;-59
2023/06/22 10:25:13;;;;;;;;;15.00;13.50;;;;;32.84;46.03;99901.63;6315067;20;2806624;-59
2023/06/22 10:27:41;;;;;;;;;16.00;16.00;;;;;32.72;45.56;99906.28;6283985;20;3564853;-59
2023/06/22 10:30:12;;;;;;;;;15.00;15.00;;;;;32.82;45.33;99903.78;6281909;20;2809943;-59
2023/06/22 10:32:45;;;;;;;;;15.33;13.67;;;;;33.52;45.57;99905.13;6285905;20;2479535;-59
2023/06/22 10:35:15;;;;;;;;;14.50;14.50;;;;;33.18;45.83;99900.09;6314816;20;2810787;-59
2023/06/22 10:37:45;;;;;;;;;16.00;14.00;;;;;32.48;45.29;99900.59;6284142;20;2811782;-59
2023/06/22 10:40:16;;;;;;;;;14.00;11.33;;;;;32.88;46.04;99894.50;6289170;20;3522181;-59
2023/06/22 10:42:45;;;;;;;;;15.33;14.33;;;;;32.83;45.29;99902.69;6319803;20;3539342;-59
2023/06/22 10:45:13;;;;;;;;;15.00;15.00;;;;;33.30;45.56;99900.13;6288071;20;3537821;-59
2023/06/22 10:47:45;;;;;;;;;14.67;14.67;;;;;33.05;44.59;99899.47;6283495;20;3536818;-59
2023/06/22 10:50:13;;;;;;;;;15.67;14.33;;;;;33.17;45.64;99895.59;6315731;20;3539934;-59
2023/06/22 10:52:41;;;;;;;;;17.00;16.67;;;;;33.09;46.65;99892.31;6285305;20;3575941;-59
2023/06/22 10:55:10;;;;;;;;;20.67;16.00;;;;;32.75;47.50;99897.47;6285390;20;3569080;-59
2023/06/22 10:57:43;;;;;;;;;14.00;13.00;;;;;33.04;46.89;99893.03;6279979;20;2804467;-50
2023/06/22 11:00:14;;;;;;;;;21.33;17.00;;;;;32.88;46.13;99888.09;6280764;20;3573227;-50
2023/06/22 11:02:42;;;;;;;;;15.00;15.00;;;;;32.57;47.87;99888.09;6317084;20;3546103;-51
2023/06/22 11:05:11;;;;;;;;;16.33;14.33;;;;;33.14;46.79;99889.66;6282282;20;3545129;-50
2023/06/22 11:07:44;;;;;;;;;18.00;18.00;;;;;32.88;45.77;99886.16;6286374;20;3569029;-53
2023/06/22 11:10:13;;;;;;;;;17.33;17.33;;;;;32.86;46.23;99879.13;6287096;20;3565085;-56
2023/06/22 11:12:42;;;;;;;;;21.67;16.67;;;;;33.61;45.51;99876.72;6288987;20;3562814;-49
2023/06/22 11:15:10;;;;;;;;;8.67;8.00;;;;;33.25;44.42;99872.16;6290213;20;2753549;-51
2023/06/22 11:17:38;;;;;;;;;18.67;16.67;;;;;33.34;44.84;99875.44;6315272;20;3579404;-50
2023/06/22 11:20:10;;;;;;;;;15.00;14.00;;;;;33.28;45.26;99876.38;6283141;20;3538894;-49